sensor_id;sensor_type;location;lat;lon;timestamp;P1;durP1;ratioP1;P2;durP2;ratioP2
64353;SDS011;50681;53.334;-6.536;2022-10-16T00:00:39;5.47;;;2.00;;
64353;SDS011;50681;53.334;-6.536;2022-10-16T00:03:05;10.10;;;2.35;;
64353;SDS011;50681;53.334;-6.536;2022-10-16T00:05:32;14.30;;;2.13;;
64353;SDS011;50681;53.334;-6.536;2022-10-16T00:07:58;5.47;;;2.72;;
64353;SDS011;50681;53.334;-6.536;2022-10-16T00:10:23;9.20;;;2.10;;
64353;SDS011;50681;53.334;-6.536;2022-10-16T00:12:49;9.60;;;2.17;;
64353;SDS011;50681;53.334;-6.536;2022-10-16T00:15:15;5.60;;;1.83;;
64353;SDS011;50681;53.334;-6.536;2022-10-16T00:17:40;6.10;;;1.60;;
64353;SDS011;50681;53.334;-6.536;2022-10-16T00:20:06;9.27;;;1.90;;
64353;SDS011;50681;53.334;-6.536;2022-10-16T00:22:32;4.68;;;1.75;;
64353;SDS011;50681;53.334;-6.536;2022-10-16T00:24:58;7.85;;;1.88;;
64353;SDS011;50681;53.334;-6.536;2022-10-16T00:27:23;9.13;;;1.77;;
64353;SDS011;50681;53.334;-6.536;2022-10-16T00:29:52;23.13;;;2.23;;
64353;SDS011;50681;53.334;-6.536;2022-10-16T00:32:18;9.85;;;1.88;;
64353;SDS011;50681;53.334;-6.536;2022-10-16T00:37:09;8.98;;;1.77;;
64353;SDS011;50681;53.334;-6.536;2022-10-16T00:39:35;5.60;;;1.63;;
64353;SDS011;50681;53.334;-6.536;2022-10-16T00:42:00;8.47;;;1.67;;
64353;SDS011;50681;53.334;-6.536;2022-10-16T00:44:42;6.57;;;1.90;;
64353;SDS011;50681;53.334;-6.536;2022-10-16T00:47:18;7.03;;;1.58;;
64353;SDS011;50681;53.334;-6.536;2022-10-16T00:49:47;3.60;;;1.30;;
64353;SDS011;50681;53.334;-6.536;2022-10-16T00:52:16;5.30;;;1.30;;
64353;SDS011;50681;53.334;-6.536;2022-10-16T00:54:42;7.57;;;1.40;;
64353;SDS011;50681;53.334;-6.536;2022-10-16T00:59:38;5.75;;;1.45;;
64353;SDS011;50681;53.334;-6.536;2022-10-16T01:02:06;6.65;;;1.48;;
64353;SDS011;50681;53.334;-6.536;2022-10-16T01:04:40;16.98;;;1.70;;
64353;SDS011;50681;53.334;-6.536;2022-10-16T01:13:09;9.15;;;1.40;;
64353;SDS011;50681;53.334;-6.536;2022-10-16T01:15:41;11.40;;;1.27;;
64353;SDS011;50681;53.334;-6.536;2022-10-16T01:20:53;12.93;;;2.00;;
64353;SDS011;50681;53.334;-6.536;2022-10-16T01:28:41;8.10;;;1.15;;
64353;SDS011;50681;53.334;-6.536;2022-10-16T01:31:12;7.72;;;1.30;;
64353;SDS011;50681;53.334;-6.536;2022-10-16T01:33:42;11.45;;;1.88;;
64353;SDS011;50681;53.334;-6.536;2022-10-16T01:36:15;9.23;;;1.33;;
64353;SDS011;50681;53.334;-6.536;2022-10-16T01:38:55;8.50;;;1.23;;
64353;SDS011;50681;53.334;-6.536;2022-10-16T01:41:27;6.47;;;1.02;;
64353;SDS011;50681;53.334;-6.536;2022-10-16T01:46:59;11.90;;;1.40;;
64353;SDS011;50681;53.334;-6.536;2022-10-16T01:49:32;5.70;;;1.63;;
64353;SDS011;50681;53.334;-6.536;2022-10-16T01:52:02;10.50;;;1.77;;
64353;SDS011;50681;53.334;-6.536;2022-10-16T01:54:32;5.43;;;1.45;;
64353;SDS011;50681;53.334;-6.536;2022-10-16T01:57:05;7.78;;;1.38;;
64353;SDS011;50681;53.334;-6.536;2022-10-16T01:59:33;5.57;;;1.40;;
64353;SDS011;50681;53.334;-6.536;2022-10-16T02:02:04;13.20;;;1.30;;
64353;SDS011;50681;53.334;-6.536;2022-10-16T02:04:34;6.93;;;1.67;;
64353;SDS011;50681;53.334;-6.536;2022-10-16T02:07:04;10.43;;;1.77;;
64353;SDS011;50681;53.334;-6.536;2022-10-16T02:09:34;8.13;;;1.40;;
64353;SDS011;50681;53.334;-6.536;2022-10-16T02:12:03;10.98;;;1.60;;
64353;SDS011;50681;53.334;-6.536;2022-10-16T02:14:37;6.85;;;1.45;;
64353;SDS011;50681;53.334;-6.536;2022-10-16T02:17:14;8.07;;;1.30;;
64353;SDS011;50681;53.334;-6.536;2022-10-16T02:22:10;9.27;;;1.73;;
64353;SDS011;50681;53.334;-6.536;2022-10-16T02:25:08;7.07;;;1.45;;
64353;SDS011;50681;53.334;-6.536;2022-10-16T02:27:54;9.25;;;1.65;;
64353;SDS011;50681;53.334;-6.536;2022-10-16T02:33:03;11.27;;;1.47;;
64353;SDS011;50681;53.334;-6.536;2022-10-16T02:35:32;9.95;;;2.22;;
64353;SDS011;50681;53.334;-6.536;2022-10-16T02:37:58;5.57;;;1.40;;
64353;SDS011;50681;53.334;-6.536;2022-10-16T02:40:24;12.65;;;1.35;;
64353;SDS011;50681;53.334;-6.536;2022-10-16T02:42:51;5.97;;;1.38;;
64353;SDS011;50681;53.334;-6.536;2022-10-16T02:45:18;6.28;;;1.08;;
64353;SDS011;50681;53.334;-6.536;2022-10-16T02:47:44;7.53;;;1.50;;
64353;SDS011;50681;53.334;-6.536;2022-10-16T02:50:10;7.33;;;1.53;;
64353;SDS011;50681;53.334;-6.536;2022-10-16T02:55:01;4.35;;;1.15;;
64353;SDS011;50681;53.334;-6.536;2022-10-16T02:57:27;9.27;;;1.50;;
64353;SDS011;50681;53.334;-6.536;2022-10-16T02:59:53;5.30;;;1.50;;
64353;SDS011;50681;53.334;-6.536;2022-10-16T03:02:18;9.93;;;1.97;;
64353;SDS011;50681;53.334;-6.536;2022-10-16T03:04:44;9.75;;;1.45;;
64353;SDS011;50681;53.334;-6.536;2022-10-16T03:07:10;9.02;;;1.40;;
64353;SDS011;50681;53.334;-6.536;2022-10-16T03:09:36;3.27;;;1.00;;
64353;SDS011;50681;53.334;-6.536;2022-10-16T03:12:01;3.73;;;0.87;;
64353;SDS011;50681;53.334;-6.536;2022-10-16T03:14:27;4.07;;;0.98;;
64353;SDS011;50681;53.334;-6.536;2022-10-16T03:16:52;2.83;;;0.93;;
64353;SDS011;50681;53.334;-6.536;2022-10-16T03:19:18;10.17;;;1.03;;
64353;SDS011;50681;53.334;-6.536;2022-10-16T03:21:44;5.22;;;1.15;;
64353;SDS011;50681;53.334;-6.536;2022-10-16T03:24:10;3.27;;;1.03;;
64353;SDS011;50681;53.334;-6.536;2022-10-16T03:26:36;3.47;;;1.10;;
64353;SDS011;50681;53.334;-6.536;2022-10-16T03:29:02;7.03;;;1.30;;
64353;SDS011;50681;53.334;-6.536;2022-10-16T03:31:29;5.82;;;0.88;;
64353;SDS011;50681;53.334;-6.536;2022-10-16T03:33:55;8.95;;;0.90;;
64353;SDS011;50681;53.334;-6.536;2022-10-16T03:36:21;8.73;;;2.03;;
64353;SDS011;50681;53.334;-6.536;2022-10-16T03:38:46;6.47;;;1.40;;
64353;SDS011;50681;53.334;-6.536;2022-10-16T03:41:11;6.43;;;0.83;;
64353;SDS011;50681;53.334;-6.536;2022-10-16T03:43:37;4.57;;;1.10;;
64353;SDS011;50681;53.334;-6.536;2022-10-16T03:46:02;5.80;;;0.93;;
64353;SDS011;50681;53.334;-6.536;2022-10-16T03:48:28;7.83;;;0.87;;
64353;SDS011;50681;53.334;-6.536;2022-10-16T03:50:54;7.90;;;1.13;;
64353;SDS011;50681;53.334;-6.536;2022-10-16T03:53:19;3.10;;;0.90;;
64353;SDS011;50681;53.334;-6.536;2022-10-16T03:55:45;9.68;;;1.35;;
64353;SDS011;50681;53.334;-6.536;2022-10-16T03:58:11;7.33;;;0.83;;
64353;SDS011;50681;53.334;-6.536;2022-10-16T04:00:41;9.35;;;0.90;;
64353;SDS011;50681;53.334;-6.536;2022-10-16T04:03:07;9.25;;;1.38;;
64353;SDS011;50681;53.334;-6.536;2022-10-16T04:05:32;7.00;;;0.97;;
64353;SDS011;50681;53.334;-6.536;2022-10-16T04:07:58;4.10;;;0.83;;
64353;SDS011;50681;53.334;-6.536;2022-10-16T04:10:23;7.63;;;0.77;;
64353;SDS011;50681;53.334;-6.536;2022-10-16T04:12:49;7.03;;;0.93;;
64353;SDS011;50681;53.334;-6.536;2022-10-16T04:15:14;10.57;;;1.60;;
64353;SDS011;50681;53.334;-6.536;2022-10-16T04:17:39;7.43;;;1.47;;
64353;SDS011;50681;53.334;-6.536;2022-10-16T04:20:05;7.23;;;1.10;;
64353;SDS011;50681;53.334;-6.536;2022-10-16T04:22:31;5.95;;;0.95;;
64353;SDS011;50681;53.334;-6.536;2022-10-16T04:24:57;14.00;;;1.07;;
64353;SDS011;50681;53.334;-6.536;2022-10-16T04:27:22;8.83;;;1.57;;
64353;SDS011;50681;53.334;-6.536;2022-10-16T04:29:47;12.87;;;1.50;;
64353;SDS011;50681;53.334;-6.536;2022-10-16T04:32:13;6.27;;;0.97;;
64353;SDS011;50681;53.334;-6.536;2022-10-16T04:34:39;5.80;;;1.10;;
64353;SDS011;50681;53.334;-6.536;2022-10-16T04:37:05;9.10;;;0.95;;
64353;SDS011;50681;53.334;-6.536;2022-10-16T04:39:30;6.63;;;1.20;;
64353;SDS011;50681;53.334;-6.536;2022-10-16T04:41:56;3.50;;;0.70;;
64353;SDS011;50681;53.334;-6.536;2022-10-16T04:44:21;4.57;;;1.77;;
64353;SDS011;50681;53.334;-6.536;2022-10-16T04:46:47;1.63;;;0.57;;
64353;SDS011;50681;53.334;-6.536;2022-10-16T04:49:14;3.72;;;0.68;;
64353;SDS011;50681;53.334;-6.536;2022-10-16T04:51:40;6.87;;;1.20;;
64353;SDS011;50681;53.334;-6.536;2022-10-16T04:54:05;7.53;;;0.77;;
64353;SDS011;50681;53.334;-6.536;2022-10-16T04:56:31;8.83;;;1.00;;
64353;SDS011;50681;53.334;-6.536;2022-10-16T04:58:56;12.43;;;1.27;;
64353;SDS011;50681;53.334;-6.536;2022-10-16T05:01:22;8.63;;;1.23;;
64353;SDS011;50681;53.334;-6.536;2022-10-16T05:03:47;2.60;;;0.67;;
64353;SDS011;50681;53.334;-6.536;2022-10-16T05:06:13;6.93;;;1.07;;
64353;SDS011;50681;53.334;-6.536;2022-10-16T05:08:38;12.40;;;1.53;;
64353;SDS011;50681;53.334;-6.536;2022-10-16T05:11:03;5.03;;;1.10;;
64353;SDS011;50681;53.334;-6.536;2022-10-16T05:13:29;6.43;;;0.80;;
64353;SDS011;50681;53.334;-6.536;2022-10-16T05:15:54;4.60;;;1.00;;
64353;SDS011;50681;53.334;-6.536;2022-10-16T05:18:20;4.80;;;1.00;;
64353;SDS011;50681;53.334;-6.536;2022-10-16T05:20:45;9.07;;;1.13;;
64353;SDS011;50681;53.334;-6.536;2022-10-16T05:23:10;5.33;;;0.97;;
64353;SDS011;50681;53.334;-6.536;2022-10-16T05:25:36;11.02;;;1.25;;
64353;SDS011;50681;53.334;-6.536;2022-10-16T05:28:02;7.53;;;0.93;;
64353;SDS011;50681;53.334;-6.536;2022-10-16T05:30:28;3.05;;;0.70;;
64353;SDS011;50681;53.334;-6.536;2022-10-16T05:32:53;5.90;;;1.10;;
64353;SDS011;50681;53.334;-6.536;2022-10-16T05:35:19;4.80;;;0.67;;
64353;SDS011;50681;53.334;-6.536;2022-10-16T05:37:45;8.98;;;1.30;;
64353;SDS011;50681;53.334;-6.536;2022-10-16T05:40:11;6.38;;;1.10;;
64353;SDS011;50681;53.334;-6.536;2022-10-16T05:45:04;6.20;;;1.10;;
64353;SDS011;50681;53.334;-6.536;2022-10-16T05:47:31;4.87;;;1.00;;
64353;SDS011;50681;53.334;-6.536;2022-10-16T05:49:56;1.93;;;0.60;;
64353;SDS011;50681;53.334;-6.536;2022-10-16T05:52:22;13.67;;;1.20;;
64353;SDS011;50681;53.334;-6.536;2022-10-16T05:54:47;7.40;;;1.07;;
64353;SDS011;50681;53.334;-6.536;2022-10-16T05:57:13;10.73;;;1.10;;
64353;SDS011;50681;53.334;-6.536;2022-10-16T05:59:38;3.70;;;0.87;;
64353;SDS011;50681;53.334;-6.536;2022-10-16T06:02:03;3.70;;;1.17;;
64353;SDS011;50681;53.334;-6.536;2022-10-16T06:04:29;13.70;;;1.27;;
64353;SDS011;50681;53.334;-6.536;2022-10-16T06:06:57;8.33;;;0.90;;
64353;SDS011;50681;53.334;-6.536;2022-10-16T06:09:25;8.75;;;1.10;;
64353;SDS011;50681;53.334;-6.536;2022-10-16T06:11:50;11.87;;;1.63;;
64353;SDS011;50681;53.334;-6.536;2022-10-16T06:14:16;5.03;;;0.70;;
64353;SDS011;50681;53.334;-6.536;2022-10-16T06:16:41;6.50;;;1.33;;
64353;SDS011;50681;53.334;-6.536;2022-10-16T06:19:07;5.97;;;0.83;;
64353;SDS011;50681;53.334;-6.536;2022-10-16T06:21:33;12.13;;;1.48;;
64353;SDS011;50681;53.334;-6.536;2022-10-16T06:23:58;6.68;;;1.50;;
64353;SDS011;50681;53.334;-6.536;2022-10-16T06:26:26;17.67;;;1.70;;
64353;SDS011;50681;53.334;-6.536;2022-10-16T06:28:53;5.30;;;1.10;;
64353;SDS011;50681;53.334;-6.536;2022-10-16T06:31:22;10.10;;;1.67;;
64353;SDS011;50681;53.334;-6.536;2022-10-16T06:33:52;4.93;;;1.10;;
64353;SDS011;50681;53.334;-6.536;2022-10-16T06:36:28;6.72;;;1.50;;
64353;SDS011;50681;53.334;-6.536;2022-10-16T06:38:55;11.02;;;1.33;;
64353;SDS011;50681;53.334;-6.536;2022-10-16T06:41:21;6.20;;;0.88;;
64353;SDS011;50681;53.334;-6.536;2022-10-16T06:43:48;5.75;;;0.90;;
64353;SDS011;50681;53.334;-6.536;2022-10-16T06:46:15;6.73;;;1.17;;
64353;SDS011;50681;53.334;-6.536;2022-10-16T06:48:45;6.50;;;1.20;;
64353;SDS011;50681;53.334;-6.536;2022-10-16T06:51:12;5.07;;;1.17;;
64353;SDS011;50681;53.334;-6.536;2022-10-16T06:53:45;5.82;;;1.05;;
64353;SDS011;50681;53.334;-6.536;2022-10-16T06:56:21;10.77;;;1.43;;
64353;SDS011;50681;53.334;-6.536;2022-10-16T06:58:47;10.23;;;1.17;;
64353;SDS011;50681;53.334;-6.536;2022-10-16T07:01:14;5.30;;;1.10;;
64353;SDS011;50681;53.334;-6.536;2022-10-16T07:03:41;2.67;;;0.90;;
64353;SDS011;50681;53.334;-6.536;2022-10-16T07:06:09;11.57;;;1.95;;
64353;SDS011;50681;53.334;-6.536;2022-10-16T07:08:37;4.25;;;0.90;;
64353;SDS011;50681;53.334;-6.536;2022-10-16T07:11:05;6.50;;;1.40;;
64353;SDS011;50681;53.334;-6.536;2022-10-16T07:13:32;5.07;;;0.65;;
64353;SDS011;50681;53.334;-6.536;2022-10-16T07:16:03;14.10;;;1.80;;
64353;SDS011;50681;53.334;-6.536;2022-10-16T07:18:31;14.60;;;1.70;;
64353;SDS011;50681;53.334;-6.536;2022-10-16T07:21:04;6.28;;;1.08;;
64353;SDS011;50681;53.334;-6.536;2022-10-16T07:23:34;7.65;;;1.67;;
64353;SDS011;50681;53.334;-6.536;2022-10-16T07:25:59;11.20;;;1.73;;
64353;SDS011;50681;53.334;-6.536;2022-10-16T07:28:26;11.82;;;1.20;;
64353;SDS011;50681;53.334;-6.536;2022-10-16T07:31:01;14.95;;;1.33;;
64353;SDS011;50681;53.334;-6.536;2022-10-16T07:33:27;7.83;;;1.07;;
64353;SDS011;50681;53.334;-6.536;2022-10-16T07:35:54;17.70;;;1.33;;
64353;SDS011;50681;53.334;-6.536;2022-10-16T07:40:46;7.88;;;1.65;;
64353;SDS011;50681;53.334;-6.536;2022-10-16T07:43:11;4.23;;;1.03;;
64353;SDS011;50681;53.334;-6.536;2022-10-16T07:45:45;9.38;;;1.50;;
64353;SDS011;50681;53.334;-6.536;2022-10-16T07:48:13;10.30;;;1.53;;
64353;SDS011;50681;53.334;-6.536;2022-10-16T07:50:39;17.77;;;1.33;;
64353;SDS011;50681;53.334;-6.536;2022-10-16T07:53:04;12.77;;;1.50;;
64353;SDS011;50681;53.334;-6.536;2022-10-16T07:55:31;10.15;;;2.22;;
64353;SDS011;50681;53.334;-6.536;2022-10-16T07:57:56;6.20;;;0.93;;
64353;SDS011;50681;53.334;-6.536;2022-10-16T08:00:22;5.57;;;0.90;;
64353;SDS011;50681;53.334;-6.536;2022-10-16T08:02:47;4.80;;;0.90;;
64353;SDS011;50681;53.334;-6.536;2022-10-16T08:05:12;14.20;;;1.60;;
64353;SDS011;50681;53.334;-6.536;2022-10-16T08:07:38;6.30;;;1.50;;
64353;SDS011;50681;53.334;-6.536;2022-10-16T08:10:03;7.33;;;1.90;;
64353;SDS011;50681;53.334;-6.536;2022-10-16T08:12:29;9.63;;;1.73;;
64353;SDS011;50681;53.334;-6.536;2022-10-16T08:14:55;14.53;;;1.33;;
64353;SDS011;50681;53.334;-6.536;2022-10-16T08:17:20;10.83;;;1.33;;
64353;SDS011;50681;53.334;-6.536;2022-10-16T08:19:46;10.17;;;1.33;;
64353;SDS011;50681;53.334;-6.536;2022-10-16T08:22:12;10.30;;;1.67;;
64353;SDS011;50681;53.334;-6.536;2022-10-16T08:24:39;8.00;;;1.50;;
64353;SDS011;50681;53.334;-6.536;2022-10-16T08:27:05;8.95;;;1.23;;
64353;SDS011;50681;53.334;-6.536;2022-10-16T08:29:30;8.43;;;1.27;;
64353;SDS011;50681;53.334;-6.536;2022-10-16T08:31:56;7.53;;;1.17;;
64353;SDS011;50681;53.334;-6.536;2022-10-16T08:34:21;9.20;;;1.23;;
64353;SDS011;50681;53.334;-6.536;2022-10-16T08:36:52;14.45;;;1.60;;
64353;SDS011;50681;53.334;-6.536;2022-10-16T08:47:39;8.63;;;1.45;;
64353;SDS011;50681;53.334;-6.536;2022-10-16T08:50:25;6.40;;;1.45;;
64353;SDS011;50681;53.334;-6.536;2022-10-16T08:52:53;14.57;;;1.67;;
64353;SDS011;50681;53.334;-6.536;2022-10-16T08:55:23;16.10;;;7.57;;
64353;SDS011;50681;53.334;-6.536;2022-10-16T08:58:14;16.15;;;3.90;;
64353;SDS011;50681;53.334;-6.536;2022-10-16T09:00:43;8.95;;;4.18;;
64353;SDS011;50681;53.334;-6.536;2022-10-16T09:03:22;14.05;;;2.42;;
64353;SDS011;50681;53.334;-6.536;2022-10-16T09:08:31;10.23;;;3.70;;
64353;SDS011;50681;53.334;-6.536;2022-10-16T09:19:24;50.05;;;19.48;;
64353;SDS011;50681;53.334;-6.536;2022-10-16T09:21:56;22.48;;;7.03;;
64353;SDS011;50681;53.334;-6.536;2022-10-16T09:24:25;26.35;;;7.32;;
64353;SDS011;50681;53.334;-6.536;2022-10-16T09:26:51;18.20;;;5.90;;
64353;SDS011;50681;53.334;-6.536;2022-10-16T09:29:18;19.52;;;5.75;;
64353;SDS011;50681;53.334;-6.536;2022-10-16T09:31:46;14.02;;;4.47;;
64353;SDS011;50681;53.334;-6.536;2022-10-16T09:34:27;56.90;;;23.58;;
64353;SDS011;50681;53.334;-6.536;2022-10-16T09:36:57;24.88;;;6.60;;
64353;SDS011;50681;53.334;-6.536;2022-10-16T09:39:24;23.25;;;6.93;;
64353;SDS011;50681;53.334;-6.536;2022-10-16T09:41:53;16.02;;;4.30;;
64353;SDS011;50681;53.334;-6.536;2022-10-16T09:44:30;15.43;;;4.65;;
64353;SDS011;50681;53.334;-6.536;2022-10-16T09:47:04;23.05;;;5.47;;
64353;SDS011;50681;53.334;-6.536;2022-10-16T09:49:31;28.90;;;9.15;;
64353;SDS011;50681;53.334;-6.536;2022-10-16T09:52:04;25.15;;;7.75;;
64353;SDS011;50681;53.334;-6.536;2022-10-16T09:54:31;35.00;;;11.73;;
64353;SDS011;50681;53.334;-6.536;2022-10-16T09:57:07;50.72;;;14.77;;
64353;SDS011;50681;53.334;-6.536;2022-10-16T09:59:48;52.75;;;16.85;;
64353;SDS011;50681;53.334;-6.536;2022-10-16T10:02:39;118.53;;;41.30;;
64353;SDS011;50681;53.334;-6.536;2022-10-16T10:05:05;71.32;;;23.08;;
64353;SDS011;50681;53.334;-6.536;2022-10-16T10:07:58;26.83;;;8.52;;
64353;SDS011;50681;53.334;-6.536;2022-10-16T10:10:29;91.57;;;34.80;;
64353;SDS011;50681;53.334;-6.536;2022-10-16T10:12:57;55.75;;;20.13;;
64353;SDS011;50681;53.334;-6.536;2022-10-16T10:15:23;12.75;;;2.72;;
64353;SDS011;50681;53.334;-6.536;2022-10-16T10:17:55;22.58;;;6.35;;
64353;SDS011;50681;53.334;-6.536;2022-10-16T10:22:57;17.63;;;5.80;;
64353;SDS011;50681;53.334;-6.536;2022-10-16T10:25:42;13.80;;;3.03;;
64353;SDS011;50681;53.334;-6.536;2022-10-16T10:31:14;15.80;;;5.32;;
64353;SDS011;50681;53.334;-6.536;2022-10-16T10:34:04;18.27;;;4.82;;
64353;SDS011;50681;53.334;-6.536;2022-10-16T10:36:42;20.45;;;2.33;;
64353;SDS011;50681;53.334;-6.536;2022-10-16T10:39:26;30.88;;;12.50;;
64353;SDS011;50681;53.334;-6.536;2022-10-16T10:42:09;24.58;;;9.00;;
64353;SDS011;50681;53.334;-6.536;2022-10-16T10:50:14;31.55;;;12.30;;
64353;SDS011;50681;53.334;-6.536;2022-10-16T11:01:09;12.43;;;2.38;;
64353;SDS011;50681;53.334;-6.536;2022-10-16T11:06:47;16.63;;;3.20;;
64353;SDS011;50681;53.334;-6.536;2022-10-16T11:09:24;15.13;;;3.15;;
64353;SDS011;50681;53.334;-6.536;2022-10-16T11:14:34;12.43;;;2.22;;
64353;SDS011;50681;53.334;-6.536;2022-10-16T11:17:21;10.45;;;1.63;;
64353;SDS011;50681;53.334;-6.536;2022-10-16T11:19:55;10.18;;;2.03;;
64353;SDS011;50681;53.334;-6.536;2022-10-16T11:22:31;9.68;;;1.98;;
64353;SDS011;50681;53.334;-6.536;2022-10-16T11:30:25;8.50;;;2.40;;
64353;SDS011;50681;53.334;-6.536;2022-10-16T11:35:24;18.13;;;2.42;;
64353;SDS011;50681;53.334;-6.536;2022-10-16T11:37:57;15.05;;;2.35;;
64353;SDS011;50681;53.334;-6.536;2022-10-16T11:43:13;6.43;;;1.77;;
64353;SDS011;50681;53.334;-6.536;2022-10-16T11:45:54;7.28;;;1.60;;
64353;SDS011;50681;53.334;-6.536;2022-10-16T11:50:54;15.23;;;2.05;;
64353;SDS011;50681;53.334;-6.536;2022-10-16T11:56:05;18.40;;;2.60;;
64353;SDS011;50681;53.334;-6.536;2022-10-16T12:09:34;13.50;;;4.10;;
64353;SDS011;50681;53.334;-6.536;2022-10-16T12:12:02;19.17;;;4.07;;
64353;SDS011;50681;53.334;-6.536;2022-10-16T12:14:36;11.27;;;2.85;;
64353;SDS011;50681;53.334;-6.536;2022-10-16T12:17:04;11.73;;;2.78;;
64353;SDS011;50681;53.334;-6.536;2022-10-16T12:19:58;12.38;;;1.88;;
64353;SDS011;50681;53.334;-6.536;2022-10-16T12:22:25;11.07;;;3.65;;
64353;SDS011;50681;53.334;-6.536;2022-10-16T12:24:55;12.68;;;3.40;;
64353;SDS011;50681;53.334;-6.536;2022-10-16T12:27:25;11.80;;;3.05;;
64353;SDS011;50681;53.334;-6.536;2022-10-16T12:30:03;11.25;;;2.45;;
64353;SDS011;50681;53.334;-6.536;2022-10-16T12:32:35;6.53;;;2.75;;
64353;SDS011;50681;53.334;-6.536;2022-10-16T12:35:17;15.02;;;5.25;;
64353;SDS011;50681;53.334;-6.536;2022-10-16T12:37:51;12.35;;;3.22;;
64353;SDS011;50681;53.334;-6.536;2022-10-16T12:40:28;10.63;;;2.83;;
64353;SDS011;50681;53.334;-6.536;2022-10-16T12:42:56;11.65;;;1.70;;
64353;SDS011;50681;53.334;-6.536;2022-10-16T12:45:34;14.40;;;1.73;;
64353;SDS011;50681;53.334;-6.536;2022-10-16T12:48:04;11.82;;;2.38;;
64353;SDS011;50681;53.334;-6.536;2022-10-16T12:50:43;7.50;;;3.00;;
64353;SDS011;50681;53.334;-6.536;2022-10-16T12:53:22;11.00;;;2.43;;
64353;SDS011;50681;53.334;-6.536;2022-10-16T12:56:12;14.10;;;2.10;;
64353;SDS011;50681;53.334;-6.536;2022-10-16T12:58:45;9.73;;;1.70;;
64353;SDS011;50681;53.334;-6.536;2022-10-16T13:01:19;15.02;;;2.33;;
64353;SDS011;50681;53.334;-6.536;2022-10-16T13:06:51;5.53;;;1.42;;
64353;SDS011;50681;53.334;-6.536;2022-10-16T13:09:30;6.57;;;2.65;;
64353;SDS011;50681;53.334;-6.536;2022-10-16T13:12:30;11.10;;;2.97;;
64353;SDS011;50681;53.334;-6.536;2022-10-16T13:15:22;14.70;;;7.65;;
64353;SDS011;50681;53.334;-6.536;2022-10-16T13:23:03;9.38;;;1.27;;
64353;SDS011;50681;53.334;-6.536;2022-10-16T13:28:05;15.47;;;3.03;;
64353;SDS011;50681;53.334;-6.536;2022-10-16T13:30:35;13.27;;;3.13;;
64353;SDS011;50681;53.334;-6.536;2022-10-16T13:33:05;34.95;;;8.45;;
64353;SDS011;50681;53.334;-6.536;2022-10-16T13:35:53;9.50;;;2.30;;
64353;SDS011;50681;53.334;-6.536;2022-10-16T13:38:22;8.32;;;2.47;;
64353;SDS011;50681;53.334;-6.536;2022-10-16T13:43:26;9.43;;;1.52;;
64353;SDS011;50681;53.334;-6.536;2022-10-16T13:46:10;6.82;;;1.40;;
64353;SDS011;50681;53.334;-6.536;2022-10-16T13:48:38;10.38;;;1.88;;
64353;SDS011;50681;53.334;-6.536;2022-10-16T13:51:05;15.60;;;2.60;;
64353;SDS011;50681;53.334;-6.536;2022-10-16T13:53:37;9.18;;;2.58;;
64353;SDS011;50681;53.334;-6.536;2022-10-16T13:56:03;10.70;;;2.23;;
64353;SDS011;50681;53.334;-6.536;2022-10-16T13:58:30;12.90;;;1.98;;
64353;SDS011;50681;53.334;-6.536;2022-10-16T14:00:57;33.63;;;10.20;;
64353;SDS011;50681;53.334;-6.536;2022-10-16T14:03:22;7.20;;;2.13;;
64353;SDS011;50681;53.334;-6.536;2022-10-16T14:05:53;16.50;;;4.15;;
64353;SDS011;50681;53.334;-6.536;2022-10-16T14:08:23;12.82;;;3.35;;
64353;SDS011;50681;53.334;-6.536;2022-10-16T14:10:51;15.57;;;4.93;;
64353;SDS011;50681;53.334;-6.536;2022-10-16T14:13:28;57.38;;;26.02;;
64353;SDS011;50681;53.334;-6.536;2022-10-16T14:16:10;67.00;;;32.78;;
64353;SDS011;50681;53.334;-6.536;2022-10-16T14:18:41;18.67;;;8.98;;
64353;SDS011;50681;53.334;-6.536;2022-10-16T14:21:12;30.17;;;10.45;;
64353;SDS011;50681;53.334;-6.536;2022-10-16T14:23:41;20.00;;;7.18;;
64353;SDS011;50681;53.334;-6.536;2022-10-16T14:28:38;9.32;;;3.47;;
64353;SDS011;50681;53.334;-6.536;2022-10-16T14:31:22;15.07;;;5.50;;
64353;SDS011;50681;53.334;-6.536;2022-10-16T14:33:50;20.75;;;6.97;;
64353;SDS011;50681;53.334;-6.536;2022-10-16T14:36:16;20.03;;;3.90;;
64353;SDS011;50681;53.334;-6.536;2022-10-16T14:38:55;17.20;;;6.72;;
64353;SDS011;50681;53.334;-6.536;2022-10-16T14:41:24;16.88;;;5.35;;
64353;SDS011;50681;53.334;-6.536;2022-10-16T14:43:50;20.30;;;5.38;;
64353;SDS011;50681;53.334;-6.536;2022-10-16T14:46:19;17.90;;;4.30;;
64353;SDS011;50681;53.334;-6.536;2022-10-16T14:48:47;13.40;;;5.43;;
64353;SDS011;50681;53.334;-6.536;2022-10-16T14:51:16;17.77;;;3.60;;
64353;SDS011;50681;53.334;-6.536;2022-10-16T14:53:42;11.75;;;2.10;;
64353;SDS011;50681;53.334;-6.536;2022-10-16T14:56:08;7.93;;;2.57;;
64353;SDS011;50681;53.334;-6.536;2022-10-16T14:58:49;9.27;;;2.33;;
64353;SDS011;50681;53.334;-6.536;2022-10-16T15:01:19;14.93;;;3.58;;
64353;SDS011;50681;53.334;-6.536;2022-10-16T15:03:45;18.65;;;5.03;;
64353;SDS011;50681;53.334;-6.536;2022-10-16T15:06:11;8.27;;;2.87;;
64353;SDS011;50681;53.334;-6.536;2022-10-16T15:08:40;17.15;;;6.07;;
64353;SDS011;50681;53.334;-6.536;2022-10-16T15:11:12;16.88;;;6.38;;
64353;SDS011;50681;53.334;-6.536;2022-10-16T15:13:40;14.52;;;4.47;;
64353;SDS011;50681;53.334;-6.536;2022-10-16T15:16:12;13.65;;;5.78;;
64353;SDS011;50681;53.334;-6.536;2022-10-16T15:18:39;15.20;;;3.60;;
64353;SDS011;50681;53.334;-6.536;2022-10-16T15:21:05;13.07;;;3.67;;
64353;SDS011;50681;53.334;-6.536;2022-10-16T15:23:34;11.02;;;4.78;;
64353;SDS011;50681;53.334;-6.536;2022-10-16T15:26:08;19.20;;;4.75;;
64353;SDS011;50681;53.334;-6.536;2022-10-16T15:28:34;14.02;;;4.97;;
64353;SDS011;50681;53.334;-6.536;2022-10-16T15:31:00;22.17;;;8.27;;
64353;SDS011;50681;53.334;-6.536;2022-10-16T15:33:26;16.93;;;4.97;;
64353;SDS011;50681;53.334;-6.536;2022-10-16T15:35:55;17.35;;;4.60;;
64353;SDS011;50681;53.334;-6.536;2022-10-16T15:38:21;17.50;;;5.87;;
64353;SDS011;50681;53.334;-6.536;2022-10-16T15:40:47;21.17;;;6.82;;
64353;SDS011;50681;53.334;-6.536;2022-10-16T15:45:43;23.30;;;4.63;;
64353;SDS011;50681;53.334;-6.536;2022-10-16T15:48:13;25.40;;;7.80;;
64353;SDS011;50681;53.334;-6.536;2022-10-16T15:50:38;20.58;;;5.38;;
64353;SDS011;50681;53.334;-6.536;2022-10-16T15:53:04;18.38;;;3.60;;
64353;SDS011;50681;53.334;-6.536;2022-10-16T15:55:30;28.40;;;3.93;;
64353;SDS011;50681;53.334;-6.536;2022-10-16T15:57:58;12.03;;;2.53;;
64353;SDS011;50681;53.334;-6.536;2022-10-16T16:00:23;19.02;;;3.88;;
64353;SDS011;50681;53.334;-6.536;2022-10-16T16:05:19;20.75;;;4.38;;
64353;SDS011;50681;53.334;-6.536;2022-10-16T16:07:45;18.85;;;5.22;;
64353;SDS011;50681;53.334;-6.536;2022-10-16T16:10:11;18.20;;;3.90;;
64353;SDS011;50681;53.334;-6.536;2022-10-16T16:12:37;16.65;;;3.67;;
64353;SDS011;50681;53.334;-6.536;2022-10-16T16:15:06;16.77;;;4.47;;
64353;SDS011;50681;53.334;-6.536;2022-10-16T16:17:33;16.42;;;4.50;;
64353;SDS011;50681;53.334;-6.536;2022-10-16T16:19:59;23.35;;;4.10;;
64353;SDS011;50681;53.334;-6.536;2022-10-16T16:22:25;16.58;;;4.53;;
64353;SDS011;50681;53.334;-6.536;2022-10-16T16:24:50;19.90;;;4.13;;
64353;SDS011;50681;53.334;-6.536;2022-10-16T16:27:16;12.57;;;4.37;;
64353;SDS011;50681;53.334;-6.536;2022-10-16T16:30:02;18.33;;;3.50;;
64353;SDS011;50681;53.334;-6.536;2022-10-16T16:32:28;18.27;;;3.35;;
64353;SDS011;50681;53.334;-6.536;2022-10-16T16:34:57;23.97;;;3.80;;
64353;SDS011;50681;53.334;-6.536;2022-10-16T16:37:24;16.23;;;3.38;;
64353;SDS011;50681;53.334;-6.536;2022-10-16T16:42:20;16.02;;;3.50;;
64353;SDS011;50681;53.334;-6.536;2022-10-16T16:44:48;15.03;;;3.37;;
64353;SDS011;50681;53.334;-6.536;2022-10-16T16:47:14;25.85;;;3.65;;
64353;SDS011;50681;53.334;-6.536;2022-10-16T16:49:39;18.23;;;3.60;;